Time;durP1;ratioP1;P1;durP2;ratioP2;P2;SDS_P1;SDS_P2;PMS_P1;PMS_P2;Temp;Humidity;BMP_temperature;BMP_pressure;BME280_temperature;BME280_humidity;BME280_pressure;Samples;Min_cycle;Max_cycle;Signal;HPM_P1;HPM_P2
2023/10/14 00:01:13;;;;;;;24.17;13.10;;;17.40;99.90;;;;;;5053851;28;20103;-76
2023/10/14 00:03:45;;;;;;;23.92;14.27;;;17.50;99.90;;;;;;5050773;28;20044;-76
2023/10/14 00:06:12;;;;;;;22.60;11.93;;;17.40;99.90;;;;;;5056476;28;20021;-76
2023/10/14 00:11:24;;;;;;;23.75;12.55;;;17.10;99.90;;;;;;5051030;28;20029;-76
2023/10/14 00:13:52;;;;;;;26.48;14.32;;;17.00;99.90;;;;;;5050826;28;20097;-76
2023/10/14 00:18:56;;;;;;;20.77;13.05;;;17.00;99.90;;;;;;5051163;28;20033;-76
2023/10/14 00:21:25;;;;;;;25.02;12.38;;;17.00;99.90;;;;;;5057827;28;20032;-76
2023/10/14 00:23:57;;;;;;;27.05;13.48;;;17.00;99.90;;;;;;5049487;28;23684;-76
2023/10/14 00:26:26;;;;;;;23.75;12.93;;;17.00;99.90;;;;;;5057381;28;20630;-76
2023/10/14 00:29:10;;;;;;;22.17;12.30;;;16.80;99.90;;;;;;5052700;28;20028;-76
2023/10/14 00:31:36;;;;;;;27.45;14.88;;;16.70;99.90;;;;;;5051351;28;20506;-76
2023/10/14 00:34:03;;;;;;;26.08;13.10;;;16.60;99.90;;;;;;5048651;28;20067;-76
2023/10/14 00:36:31;;;;;;;19.83;12.40;;;16.60;99.90;;;;;;5052066;28;20053;-76
2023/10/14 00:39:12;;;;;;;22.08;12.93;;;16.60;99.90;;;;;;5049019;28;20037;-76
2023/10/14 00:41:42;;;;;;;23.45;13.13;;;16.60;99.90;;;;;;5057471;28;20029;-76
2023/10/14 00:44:08;;;;;;;22.23;14.05;;;16.60;99.90;;;;;;5048037;28;20102;-76
2023/10/14 00:46:35;;;;;;;30.27;14.75;;;16.70;99.90;;;;;;5050873;28;20111;-76
2023/10/14 00:49:04;;;;;;;23.17;13.93;;;16.70;99.90;;;;;;5060804;28;20029;-76
2023/10/14 00:51:33;;;;;;;19.08;12.73;;;16.70;99.90;;;;;;5056260;28;20016;-76
2023/10/14 00:54:02;;;;;;;26.35;13.70;;;16.60;99.90;;;;;;5052245;28;20111;-76
2023/10/14 00:56:29;;;;;;;22.38;11.90;;;16.60;99.90;;;;;;5048925;28;20025;-76
2023/10/14 00:59:03;;;;;;;17.85;11.48;;;16.50;99.90;;;;;;5048781;28;20413;-76
2023/10/14 01:01:32;;;;;;;18.83;12.38;;;16.50;99.90;;;;;;5055011;28;20029;-76
2023/10/14 01:04:18;;;;;;;28.52;13.88;;;16.30;99.90;;;;;;5055453;28;20041;-76
2023/10/14 01:09:31;;;;;;;21.67;13.85;;;16.30;99.90;;;;;;5053127;28;20044;-76
2023/10/14 01:11:58;;;;;;;18.67;11.55;;;16.30;99.90;;;;;;5051254;28;20032;-76
2023/10/14 01:14:24;;;;;;;29.95;15.25;;;16.30;99.90;;;;;;5047916;28;20060;-76
2023/10/14 01:16:50;;;;;;;28.48;16.33;;;16.30;99.90;;;;;;5059187;28;20479;-76
2023/10/14 01:19:21;;;;;;;22.20;14.25;;;16.40;99.90;;;;;;5057837;28;20040;-76
2023/10/14 01:21:51;;;;;;;25.83;15.27;;;16.40;99.90;;;;;;5056719;28;20025;-76
2023/10/14 01:24:17;;;;;;;28.77;14.40;;;16.30;99.90;;;;;;5052599;28;20075;-76
2023/10/14 01:26:51;;;;;;;28.25;15.00;;;16.30;99.90;;;;;;5060200;28;20036;-76
2023/10/14 01:29:25;;;;;;;27.35;14.30;;;16.20;99.90;;;;;;5053260;28;20111;-76
2023/10/14 01:35:12;;;;;;;23.63;14.55;;;16.10;99.90;;;;;;5055655;28;20045;-76
2023/10/14 01:37:39;;;;;;;22.10;12.85;;;16.10;99.90;;;;;;5054276;28;20028;-76
2023/10/14 01:42:43;;;;;;;22.15;13.65;;;16.10;99.90;;;;;;5061588;28;20036;-76
2023/10/14 01:45:08;;;;;;;26.98;15.68;;;16.00;99.90;;;;;;5051401;28;20021;-76
2023/10/14 01:47:42;;;;;;;26.08;13.63;;;16.10;99.90;;;;;;5053084;28;20029;-76
2023/10/14 01:50:12;;;;;;;32.40;16.10;;;16.20;99.90;;;;;;5057937;28;20033;-76
2023/10/14 01:52:38;;;;;;;29.00;13.63;;;16.10;99.90;;;;;;5066403;28;20040;-76
2023/10/14 01:55:05;;;;;;;25.50;14.13;;;16.10;99.90;;;;;;5052617;28;20025;-76
2023/10/14 01:57:31;;;;;;;20.75;12.85;;;16.10;99.90;;;;;;5055307;28;20078;-76
2023/10/14 01:59:57;;;;;;;22.60;12.77;;;15.90;99.90;;;;;;5059231;28;20044;-76
2023/10/14 02:02:22;;;;;;;25.73;13.65;;;15.90;99.90;;;;;;5051798;28;20467;-75
2023/10/14 02:04:56;;;;;;;21.02;13.15;;;16.00;99.90;;;;;;5049410;28;20048;-77
2023/10/14 02:07:22;;;;;;;20.55;12.98;;;16.10;99.90;;;;;;5053015;28;20497;-76
2023/10/14 02:09:55;;;;;;;20.25;12.85;;;16.00;99.90;;;;;;5061739;28;20382;-76
2023/10/14 02:12:22;;;;;;;21.83;12.48;;;15.90;99.90;;;;;;5052954;28;20028;-76
2023/10/14 02:14:57;;;;;;;22.95;13.88;;;15.90;99.90;;;;;;5059023;28;20033;-76
2023/10/14 02:17:24;;;;;;;24.70;13.32;;;15.80;99.90;;;;;;5056647;28;20021;-76
2023/10/14 02:19:51;;;;;;;25.83;14.70;;;15.80;99.90;;;;;;5056186;28;20028;-76
2023/10/14 02:22:22;;;;;;;27.75;13.82;;;15.90;99.90;;;;;;5053778;28;20390;-76
2023/10/14 02:24:48;;;;;;;19.17;12.63;;;16.00;99.90;;;;;;5060986;28;20394;-76
2023/10/14 02:27:14;;;;;;;24.52;13.18;;;16.10;99.90;;;;;;5053831;28;20052;-76
2023/10/14 02:29:47;;;;;;;26.35;14.60;;;16.00;99.90;;;;;;5053081;28;20032;-76
2023/10/14 02:32:13;;;;;;;24.88;13.07;;;16.00;99.90;;;;;;5057311;28;20031;-76
2023/10/14 02:34:39;;;;;;;20.55;12.57;;;15.70;99.90;;;;;;5060489;28;20025;-76
2023/10/14 02:37:07;;;;;;;23.38;13.18;;;15.60;99.90;;;;;;5051131;28;20041;-76
2023/10/14 02:39:33;;;;;;;20.35;12.48;;;15.50;99.90;;;;;;5052380;28;20021;-76
2023/10/14 02:41:59;;;;;;;22.52;13.35;;;15.50;99.90;;;;;;5060170;28;20493;-76
2023/10/14 02:44:31;;;;;;;21.40;12.27;;;15.50;99.90;;;;;;5057018;28;20203;-76
2023/10/14 02:47:04;;;;;;;21.75;13.27;;;15.50;99.90;;;;;;5051057;28;20025;-76
2023/10/14 02:49:37;;;;;;;25.20;15.13;;;15.50;99.90;;;;;;5049602;28;20032;-76
2023/10/14 02:52:10;;;;;;;25.33;14.55;;;15.60;99.90;;;;;;5057125;28;20025;-76
2023/10/14 02:54:36;;;;;;;27.08;16.13;;;15.60;99.90;;;;;;5049876;28;20048;-76
2023/10/14 02:59:47;;;;;;;27.35;15.50;;;15.60;99.90;;;;;;5055304;28;20039;-76
2023/10/14 03:07:22;;;;;;;26.42;15.30;;;15.70;99.90;;;;;;5060197;28;20032;-76
2023/10/14 03:09:47;;;;;;;33.80;15.43;;;15.70;99.90;;;;;;5047531;28;20085;-76
2023/10/14 03:12:18;;;;;;;23.67;14.52;;;15.70;99.90;;;;;;5041997;28;20128;-76
2023/10/14 03:14:48;;;;;;;25.98;16.48;;;15.70;99.90;;;;;;5048019;28;20051;-76
2023/10/14 03:17:25;;;;;;;24.88;15.88;;;15.80;99.90;;;;;;5052798;28;20608;-76
2023/10/14 03:19:53;;;;;;;23.48;14.82;;;15.60;99.90;;;;;;5048205;28;20219;-76
2023/10/14 03:22:27;;;;;;;29.33;15.82;;;15.60;99.90;;;;;;5050456;28;20051;-76
2023/10/14 03:25:04;;;;;;;21.83;13.55;;;15.60;99.90;;;;;;5053853;28;20119;-76
2023/10/14 03:27:32;;;;;;;23.00;13.50;;;15.60;99.90;;;;;;5055063;28;20032;-76
2023/10/14 03:29:59;;;;;;;24.67;14.02;;;15.40;99.90;;;;;;5045823;28;20769;-76
2023/10/14 03:32:42;;;;;;;25.63;14.82;;;15.20;99.90;;;;;;5052718;28;20033;-76
2023/10/14 03:35:13;;;;;;;20.90;13.60;;;15.20;99.90;;;;;;5046716;28;20503;-76
2023/10/14 03:37:52;;;;;;;25.65;13.88;;;15.30;99.90;;;;;;5050863;28;20059;-76
2023/10/14 03:43:10;;;;;;;22.30;14.25;;;15.20;99.90;;;;;;5049467;28;20716;-76
2023/10/14 03:45:47;;;;;;;24.42;13.75;;;15.20;99.90;;;;;;5049231;28;20033;-76
2023/10/14 03:48:13;;;;;;;27.42;16.15;;;15.20;99.90;;;;;;5049687;28;20025;-76
2023/10/14 03:50:39;;;;;;;25.60;15.80;;;15.20;99.90;;;;;;5056701;28;20127;-76
2023/10/14 03:53:08;;;;;;;22.98;14.75;;;15.20;99.90;;;;;;5054411;28;20040;-76
2023/10/14 03:55:33;;;;;;;29.35;14.70;;;15.20;99.90;;;;;;5050970;28;20033;-76
2023/10/14 03:58:08;;;;;;;28.02;16.35;;;15.20;99.90;;;;;;5045792;28;20038;-76
2023/10/14 04:00:37;;;;;;;26.23;15.07;;;15.10;99.90;;;;;;5044283;28;20394;-76
2023/10/14 04:03:11;;;;;;;23.73;15.20;;;15.20;99.90;;;;;;5052841;28;20611;-76
2023/10/14 04:05:45;;;;;;;23.27;14.73;;;15.30;99.90;;;;;;5050158;28;20612;-76
2023/10/14 04:08:13;;;;;;;21.90;13.15;;;15.40;99.90;;;;;;5045495;28;20048;-76
2023/10/14 04:10:45;;;;;;;26.30;15.13;;;15.10;99.90;;;;;;5042681;28;20037;-76
2023/10/14 04:13:21;;;;;;;30.08;15.52;;;15.10;99.90;;;;;;5049832;28;20119;-76
2023/10/14 04:15:52;;;;;;;24.48;15.38;;;15.10;99.90;;;;;;5042969;28;20032;-76
2023/10/14 04:18:24;;;;;;;27.30;15.52;;;15.10;99.90;;;;;;5048984;28;20056;-76
2023/10/14 04:23:47;;;;;;;22.10;13.00;;;15.10;99.90;;;;;;5051770;28;20032;-76
2023/10/14 04:26:12;;;;;;;25.95;15.45;;;15.00;99.90;;;;;;5046616;28;20033;-76
2023/10/14 04:28:53;;;;;;;25.02;15.40;;;15.00;99.90;;;;;;5044935;28;20029;-76
2023/10/14 04:31:20;;;;;;;24.23;14.75;;;15.10;99.90;;;;;;5049034;28;20020;-76
2023/10/14 04:33:55;;;;;;;24.23;15.98;;;15.20;99.90;;;;;;5049615;28;20132;-76
2023/10/14 04:36:36;;;;;;;28.15;15.77;;;15.20;99.90;;;;;;5053183;28;20033;-76
2023/10/14 04:39:16;;;;;;;32.65;15.25;;;15.30;99.90;;;;;;5050050;28;20792;-76
2023/10/14 04:44:36;;;;;;;32.20;14.80;;;15.20;99.90;;;;;;5045114;28;20051;-76
2023/10/14 04:47:04;;;;;;;29.02;16.85;;;15.20;99.90;;;;;;5052489;28;20040;-76
2023/10/14 04:49:37;;;;;;;26.10;15.20;;;15.30;99.90;;;;;;5056198;28;20025;-76
2023/10/14 04:52:06;;;;;;;21.88;13.80;;;15.20;99.90;;;;;;5046860;28;20028;-76
2023/10/14 04:54:37;;;;;;;21.55;13.75;;;15.10;99.90;;;;;;5048785;28;20060;-76
2023/10/14 04:57:19;;;;;;;20.75;14.02;;;14.90;99.90;;;;;;5042924;28;20036;-76
2023/10/14 04:59:45;;;;;;;26.58;14.75;;;14.80;99.90;;;;;;5049518;28;20029;-76
2023/10/14 05:02:15;;;;;;;24.42;16.02;;;14.70;99.90;;;;;;5040205;28;20036;-76
2023/10/14 05:04:41;;;;;;;24.88;14.70;;;14.80;99.90;;;;;;5042789;28;20041;-76
2023/10/14 05:07:11;;;;;;;24.67;14.20;;;14.70;99.90;;;;;;5042553;28;20029;-76
2023/10/14 05:09:39;;;;;;;26.00;16.00;;;14.90;99.90;;;;;;5049863;28;20104;-76
2023/10/14 05:12:09;;;;;;;30.65;14.48;;;14.90;99.90;;;;;;5043571;28;20056;-76
2023/10/14 05:14:38;;;;;;;25.90;14.43;;;14.90;99.90;;;;;;5047562;28;20040;-76
2023/10/14 05:17:25;;;;;;;21.98;13.32;;;15.00;99.90;;;;;;5053313;28;20051;-76
2023/10/14 05:19:57;;;;;;;19.35;13.07;;;15.00;99.90;;;;;;5046010;28;20033;-76
2023/10/14 05:22:37;;;;;;;21.17;12.13;;;15.10;99.90;;;;;;5050511;28;20032;-76
2023/10/14 05:25:08;;;;;;;24.83;13.98;;;15.10;99.90;;;;;;5050372;28;20051;-76
2023/10/14 05:28:17;;;;;;;26.95;14.68;;;15.00;99.90;;;;;;5054968;28;20024;-76
2023/10/14 05:30:24;;;;;;;22.13;13.45;;;14.90;99.90;;;;;;5045099;28;20093;-74
2023/10/14 05:32:53;;;;;;;22.58;13.02;;;14.70;99.90;;;;;;5056869;28;20025;-78
2023/10/14 05:35:22;;;;;;;24.30;15.32;;;14.60;99.90;;;;;;5052939;28;20036;-78
2023/10/14 05:37:47;;;;;;;25.58;14.68;;;14.70;99.90;;;;;;5050256;28;20133;-80
2023/10/14 05:40:13;;;;;;;30.85;15.25;;;15.00;99.90;;;;;;5053841;28;20108;-77
2023/10/14 05:42:43;;;;;;;22.85;14.13;;;14.90;99.90;;;;;;5044527;28;20033;-77
2023/10/14 05:45:11;;;;;;;26.10;15.05;;;14.70;99.90;;;;;;5050772;28;20078;-76
2023/10/14 05:47:37;;;;;;;25.90;15.27;;;14.80;99.90;;;;;;5040672;28;20047;-76
2023/10/14 05:50:06;;;;;;;25.52;14.40;;;15.10;99.90;;;;;;5042460;28;20386;-77
2023/10/14 05:52:32;;;;;;;28.63;14.25;;;14.80;99.90;;;;;;5047163;28;20074;-76
2023/10/14 05:55:01;;;;;;;28.42;14.25;;;14.70;99.90;;;;;;5046074;28;20583;-76
2023/10/14 05:57:29;;;;;;;26.67;15.52;;;14.80;99.90;;;;;;5050346;28;20031;-76
2023/10/14 05:59:57;;;;;;;22.48;13.40;;;15.00;99.90;;;;;;5043633;28;20519;-79
2023/10/14 06:02:23;;;;;;;25.17;14.85;;;15.00;99.90;;;;;;5046017;28;20825;-77
2023/10/14 06:04:50;;;;;;;23.73;13.70;;;14.90;99.90;;;;;;5046090;28;20139;-77
2023/10/14 06:07:18;;;;;;;25.13;15.35;;;14.90;99.90;;;;;;5052018;28;20028;-78
2023/10/14 06:09:47;;;;;;;23.40;13.35;;;14.80;99.90;;;;;;5050780;28;20024;-78
2023/10/14 06:12:13;;;;;;;27.95;14.20;;;14.80;99.90;;;;;;5054226;28;20037;-78
2023/10/14 06:14:41;;;;;;;24.13;14.43;;;14.80;99.90;;;;;;5046897;28;20070;-77
2023/10/14 06:17:07;;;;;;;24.15;13.68;;;14.80;99.90;;;;;;5047858;28;20037;-77
2023/10/14 06:19:36;;;;;;;24.83;13.43;;;15.00;99.90;;;;;;5042846;28;20139;-78
2023/10/14 06:22:02;;;;;;;24.35;15.25;;;15.00;99.90;;;;;;5051334;28;20120;-78
2023/10/14 06:24:29;;;;;;;22.30;13.70;;;15.10;99.90;;;;;;5052672;28;20117;-78
2023/10/14 06:27:08;;;;;;;22.73;13.32;;;15.10;99.90;;;;;;5045016;28;20621;-78
2023/10/14 06:29:37;;;;;;;20.63;13.20;;;15.00;99.90;;;;;;5047586;28;20029;-77
2023/10/14 06:32:04;;;;;;;19.40;12.50;;;15.00;99.90;;;;;;5047319;28;20136;-77
2023/10/14 06:34:33;;;;;;;21.70;13.32;;;15.00;99.90;;;;;;5052805;28;20525;-78
2023/10/14 06:37:02;;;;;;;18.33;12.18;;;15.10;99.90;;;;;;5050698;28;20025;-77
2023/10/14 06:39:28;;;;;;;24.55;12.85;;;15.10;99.90;;;;;;5048456;28;20037;-77
2023/10/14 06:41:55;;;;;;;21.58;12.00;;;15.00;99.90;;;;;;5044194;28;20044;-77
2023/10/14 06:44:26;;;;;;;19.85;13.27;;;14.90;99.90;;;;;;5044816;28;20032;-77
2023/10/14 06:46:53;;;;;;;20.48;12.27;;;14.90;99.90;;;;;;5043196;28;20105;-77
2023/10/14 06:49:22;;;;;;;20.48;11.68;;;14.90;99.90;;;;;;5045714;28;20596;-76
2023/10/14 06:51:51;;;;;;;23.15;12.52;;;14.90;99.90;;;;;;5044978;28;20029;-77
2023/10/14 06:54:25;;;;;;;23.02;12.55;;;15.00;99.90;;;;;;5048735;28;20036;-77
2023/10/14 06:56:54;;;;;;;19.77;11.95;;;15.00;99.90;;;;;;5044554;28;20124;-77
2023/10/14 06:59:20;;;;;;;20.25;13.43;;;15.10;99.90;;;;;;5050364;28;20358;-76
2023/10/14 07:01:46;;;;;;;27.48;14.10;;;15.20;99.90;;;;;;5043085;28;20021;-77
2023/10/14 07:04:12;;;;;;;24.25;14.10;;;15.20;99.90;;;;;;5050636;28;20048;-77
2023/10/14 07:06:47;;;;;;;22.83;13.23;;;15.20;99.90;;;;;;5044900;28;20048;-77
2023/10/14 07:09:22;;;;;;;22.35;11.98;;;15.20;99.90;;;;;;5049710;28;20025;-78
2023/10/14 07:11:48;;;;;;;22.58;12.48;;;15.30;99.90;;;;;;5044151;28;20029;-77
2023/10/14 07:14:14;;;;;;;20.73;12.52;;;15.30;99.90;;;;;;5047002;28;20501;-77
2023/10/14 07:16:42;;;;;;;20.20;11.73;;;15.30;99.90;;;;;;5050811;28;20079;-78
2023/10/14 07:19:08;;;;;;;19.58;11.43;;;15.20;99.90;;;;;;5048852;28;20039;-77
2023/10/14 07:21:34;;;;;;;20.02;11.55;;;15.30;99.90;;;;;;5046856;28;20116;-77
2023/10/14 07:24:05;;;;;;;20.92;11.95;;;15.40;99.90;;;;;;5044138;28;20041;-77
2023/10/14 07:26:36;;;;;;;20.58;12.13;;;15.40;99.90;;;;;;5047925;28;20029;-78
2023/10/14 07:29:05;;;;;;;19.45;11.82;;;15.40;99.90;;;;;;5051516;28;20017;-77
2023/10/14 07:31:32;;;;;;;19.83;12.80;;;15.40;99.90;;;;;;5043649;28;20137;-77
2023/10/14 07:34:04;;;;;;;28.50;13.13;;;15.40;99.90;;;;;;5049848;28;20048;-77
2023/10/14 07:36:30;;;;;;;19.40;11.30;;;15.40;99.90;;;;;;5042653;28;20965;-75
2023/10/14 07:39:02;;;;;;;20.33;12.10;;;15.40;99.90;;;;;;5043187;28;20025;-76
2023/10/14 07:41:28;;;;;;;17.00;10.30;;;15.40;99.90;;;;;;5043418;28;20048;-75
2023/10/14 07:43:54;;;;;;;28.75;12.02;;;15.60;99.90;;;;;;5047773;28;20048;-76
2023/10/14 07:46:20;;;;;;;17.63;11.18;;;15.60;99.90;;;;;;5060555;28;20474;-75
2023/10/14 07:48:46;;;;;;;18.40;11.68;;;15.60;99.90;;;;;;5063982;28;20025;-76
2023/10/14 07:51:13;;;;;;;18.52;10.95;;;15.70;99.90;;;;;;5062947;28;20028;-76
2023/10/14 07:53:40;;;;;;;18.63;11.15;;;15.80;99.90;;;;;;5065796;28;20025;-76
2023/10/14 07:56:06;;;;;;;20.00;11.45;;;15.80;99.90;;;;;;5064561;28;20033;-77
2023/10/14 07:58:32;;;;;;;19.88;12.77;;;15.80;99.90;;;;;;5065727;28;20051;-76
2023/10/14 08:01:06;;;;;;;18.27;11.05;;;15.90;99.90;;;;;;5062570;28;20490;-75
2023/10/14 08:03:31;;;;;;;15.93;11.15;;;15.90;99.90;;;;;;5061466;28;20051;-74
2023/10/14 08:06:05;;;;;;;20.45;11.00;;;15.90;99.90;;;;;;5058412;28;20121;-76
2023/10/14 08:08:31;;;;;;;18.92;11.07;;;16.00;99.90;;;;;;5062307;28;20075;-76
2023/10/14 08:10:58;;;;;;;19.55;10.65;;;16.10;99.90;;;;;;5060356;28;20036;-76
2023/10/14 08:13:24;;;;;;;22.35;11.20;;;16.10;99.90;;;;;;5067961;28;20055;-76
2023/10/14 08:15:55;;;;;;;18.38;11.05;;;16.20;99.90;;;;;;5065880;28;20044;-75
2023/10/14 08:18:25;;;;;;;17.25;11.02;;;16.10;99.90;;;;;;5068402;28;20186;-75
2023/10/14 08:20:54;;;;;;;18.95;12.00;;;16.20;99.90;;;;;;5063762;28;20027;-75
2023/10/14 08:23:21;;;;;;;20.15;12.35;;;16.20;99.90;;;;;;5053201;28;20025;-74
2023/10/14 08:25:47;;;;;;;20.13;12.20;;;16.30;99.90;;;;;;5048218;28;20032;-74
2023/10/14 08:28:13;;;;;;;16.45;10.93;;;16.30;99.90;;;;;;5047625;28;20037;-76
2023/10/14 08:30:45;;;;;;;21.02;11.70;;;16.40;99.90;;;;;;5062961;28;20148;-76
2023/10/14 08:33:14;;;;;;;17.63;12.27;;;16.40;99.90;;;;;;5067368;28;20032;-75
2023/10/14 08:35:44;;;;;;;22.92;11.93;;;16.40;99.90;;;;;;5067823;28;20430;-76
2023/10/14 08:38:12;;;;;;;18.08;10.93;;;16.40;99.90;;;;;;5063812;28;20024;-75
2023/10/14 08:40:39;;;;;;;17.85;10.85;;;16.50;99.90;;;;;;5065058;28;20037;-75
2023/10/14 08:43:09;;;;;;;20.42;11.20;;;16.50;99.90;;;;;;5060393;28;20547;-75
2023/10/14 08:45:39;;;;;;;19.45;11.63;;;16.60;99.90;;;;;;5067766;28;20044;-75
2023/10/14 08:48:15;;;;;;;18.42;11.15;;;16.70;99.90;;;;;;5061439;28;20461;-75
2023/10/14 08:50:41;;;;;;;17.10;11.27;;;16.70;99.90;;;;;;5063388;28;20035;-75
2023/10/14 08:53:15;;;;;;;16.77;10.30;;;16.70;99.90;;;;;;5063683;28;20032;-75
2023/10/14 08:55:44;;;;;;;17.35;11.13;;;16.80;99.90;;;;;;5065078;28;20680;-75
2023/10/14 08:58:19;;;;;;;20.98;12.23;;;17.00;99.90;;;;;;5067306;28;20057;-76
2023/10/14 09:00:45;;;;;;;21.05;10.02;;;17.00;99.90;;;;;;5061092;28;20048;-76
2023/10/14 09:03:12;;;;;;;23.50;9.95;;;17.00;99.90;;;;;;5062869;28;20040;-76
2023/10/14 09:05:44;;;;;;;17.13;11.70;;;17.20;99.90;;;;;;5066828;28;20116;-77
2023/10/14 09:08:16;;;;;;;19.77;10.93;;;17.40;99.90;;;;;;5067066;28;20116;-75
2023/10/14 09:10:43;;;;;;;19.63;10.38;;;17.40;99.90;;;;;;5067132;28;20040;-73
2023/10/14 09:13:11;;;;;;;16.05;9.52;;;17.40;99.90;;;;;;5064734;28;20195;-74
2023/10/14 09:15:44;;;;;;;19.98;10.52;;;17.40;99.90;;;;;;5062228;28;20037;-74
2023/10/14 09:18:21;;;;;;;17.38;11.10;;;17.60;99.90;;;;;;5067541;28;20542;-74
2023/10/14 09:20:54;;;;;;;19.70;10.90;;;17.60;99.90;;;;;;5064602;28;20086;-75
2023/10/14 09:23:24;;;;;;;19.40;9.57;;;17.70;99.90;;;;;;5065360;28;20626;-74
2023/10/14 09:25:52;;;;;;;18.35;9.75;;;17.80;99.90;;;;;;5065843;28;20059;-75
2023/10/14 09:28:24;;;;;;;16.80;11.18;;;17.90;99.90;;;;;;5054120;28;20025;-75
2023/10/14 09:30:51;;;;;;;20.58;10.77;;;18.00;99.90;;;;;;5046758;28;20029;-75
2023/10/14 09:33:28;;;;;;;16.90;10.43;;;17.90;99.90;;;;;;5084518;28;20035;-76
2023/10/14 09:36:02;;;;;;;18.98;10.27;;;17.90;99.90;;;;;;5067406;28;20435;-76
2023/10/14 09:38:28;;;;;;;17.20;10.50;;;17.90;99.90;;;;;;5069719;28;20507;-75
2023/10/14 09:40:57;;;;;;;20.25;11.00;;;18.00;99.90;;;;;;5060165;28;20033;-76
2023/10/14 09:43:23;;;;;;;16.55;10.02;;;18.10;99.90;;;;;;5068084;28;20111;-76
2023/10/14 09:45:56;;;;;;;18.33;9.10;;;18.20;99.90;;;;;;5070956;28;20039;-76
2023/10/14 09:48:23;;;;;;;22.42;9.80;;;18.40;99.90;;;;;;5068218;28;20496;-77
2023/10/14 09:50:50;;;;;;;18.63;10.50;;;18.40;99.90;;;;;;5063623;28;20116;-77
2023/10/14 09:53:17;;;;;;;19.30;11.52;;;18.60;99.90;;;;;;5062233;28;20033;-76
2023/10/14 09:55:43;;;;;;;14.75;9.35;;;18.60;99.90;;;;;;5060527;28;20040;-75
2023/10/14 09:58:18;;;;;;;22.00;10.68;;;18.60;99.90;;;;;;5050665;28;20033;-76
2023/10/14 10:00:44;;;;;;;;;;;18.60;99.90;;;;;;5054745;28;20110;-76
2023/10/14 10:03:12;;;;;;;20.30;10.25;;;18.70;99.90;;;;;;5069979;28;20476;-76
2023/10/14 10:05:58;;;;;;;19.27;10.02;;;18.70;99.90;;;;;;5070630;28;20042;-76
2023/10/14 10:08:35;;;;;;;17.20;10.85;;;18.70;99.90;;;;;;5070477;28;20027;-76
2023/10/14 10:11:02;;;;;;;18.27;9.88;;;18.70;99.90;;;;;;5051292;28;20082;-76
2023/10/14 10:13:29;;;;;;;16.42;9.50;;;18.80;99.90;;;;;;5047744;28;20040;-75
2023/10/14 10:16:03;;;;;;;39.63;11.68;;;18.90;99.90;;;;;;5047273;28;20029;-76
2023/10/14 10:18:48;;;;;;;28.45;10.20;;;18.90;99.90;;;;;;5047752;28;20406;-76
2023/10/14 10:21:16;;;;;;;17.27;9.07;;;19.00;99.90;;;;;;5045345;28;20032;-76
2023/10/14 10:23:42;;;;;;;14.48;9.88;;;19.30;99.90;;;;;;5047578;28;20124;-76
2023/10/14 10:26:09;;;;;;;16.90;9.98;;;19.30;99.90;;;;;;5056703;28;20555;-76
2023/10/14 10:28:38;;;;;;;16.85;9.38;;;19.50;99.90;;;;;;5047091;28;20033;-76
2023/10/14 10:31:09;;;;;;;17.77;11.50;;;19.60;99.90;;;;;;5047559;28;20282;-76
2023/10/14 10:33:52;;;;;;;19.00;10.32;;;19.50;99.90;;;;;;5045757;28;20083;-76
2023/10/14 10:36:29;;;;;;;18.65;10.45;;;19.40;99.90;;;;;;5046122;28;20356;-76
2023/10/14 10:39:15;;;;;;;16.98;10.32;;;19.40;99.90;;;;;;5047264;28;20163;-77
2023/10/14 10:41:42;;;;;;;16.08;10.35;;;19.40;99.90;;;;;;5049077;28;20403;-76
2023/10/14 10:44:10;;;;;;;22.88;10.57;;;19.60;99.90;;;;;;5048092;28;20487;-76
2023/10/14 10:46:38;;;;;;;14.65;9.00;;;19.60;99.90;;;;;;5044618;28;20040;-76
2023/10/14 10:49:07;;;;;;;16.75;9.68;;;19.70;99.90;;;;;;5047577;28;20079;-76
2023/10/14 10:51:34;;;;;;;14.77;9.65;;;20.00;99.90;;;;;;5049463;28;20029;-76
2023/10/14 10:54:01;;;;;;;14.65;8.65;;;20.40;99.90;;;;;;5045751;28;20033;-76
2023/10/14 10:56:33;;;;;;;13.05;9.43;;;20.50;99.90;;;;;;5047442;28;20029;-76
2023/10/14 10:59:01;;;;;;;14.77;9.40;;;20.60;99.90;;;;;;5047670;28;20035;-76
2023/10/14 11:01:31;;;;;;;16.30;10.27;;;20.70;99.90;;;;;;5047120;28;20035;-76
2023/10/14 11:04:08;;;;;;;15.18;9.30;;;20.60;99.90;;;;;;5045325;28;20049;-76
2023/10/14 11:06:35;;;;;;;19.33;9.45;;;20.60;99.90;;;;;;5051754;28;20086;-76
2023/10/14 11:09:01;;;;;;;18.52;10.02;;;20.70;99.90;;;;;;5049483;28;20674;-76
2023/10/14 11:11:32;;;;;;;19.52;8.93;;;20.70;99.90;;;;;;5049988;28;20043;-76
2023/10/14 11:14:00;;;;;;;21.10;9.55;;;20.90;99.90;;;;;;5048550;28;20594;-76
2023/10/14 11:16:27;;;;;;;19.40;10.02;;;21.00;99.90;;;;;;5050354;28;20025;-77
2023/10/14 11:18:54;;;;;;;18.83;10.43;;;21.00;99.90;;;;;;5052845;28;20039;-76
2023/10/14 11:21:21;;;;;;;17.80;9.70;;;20.80;99.90;;;;;;5045744;28;20025;-76
2023/10/14 11:23:47;;;;;;;16.35;9.35;;;20.80;99.90;;;;;;5051978;28;20429;-77
2023/10/14 11:26:16;;;;;;;16.85;10.23;;;21.00;99.90;;;;;;5047136;28;20075;-75
2023/10/14 11:28:45;;;;;;;17.70;11.10;;;20.90;99.90;;;;;;5045701;28;20032;-75
2023/10/14 11:31:12;;;;;;;18.20;11.32;;;21.00;99.90;;;;;;5046982;28;20086;-75
2023/10/14 11:33:38;;;;;;;16.88;10.52;;;21.00;99.90;;;;;;5045116;28;20067;-75
2023/10/14 11:36:04;;;;;;;19.20;11.02;;;21.00;99.90;;;;;;5044734;28;20036;-75
2023/10/14 11:38:32;;;;;;;20.13;11.35;;;21.30;99.90;;;;;;5052531;28;20481;-75
2023/10/14 11:41:02;;;;;;;16.85;10.18;;;21.40;99.90;;;;;;5046149;28;20360;-76
2023/10/14 11:43:30;;;;;;;17.42;9.65;;;21.50;99.90;;;;;;5046992;28;20013;-76
2023/10/14 11:45:56;;;;;;;17.13;9.77;;;21.80;99.90;;;;;;5056392;28;20043;-76
2023/10/14 11:48:27;;;;;;;12.73;8.32;;;22.00;99.80;;;;;;5052349;28;20057;-76
2023/10/14 11:51:00;;;;;;;16.15;10.40;;;22.10;99.90;;;;;;5051162;28;20524;-76
2023/10/14 11:53:28;;;;;;;17.75;9.65;;;22.20;99.70;;;;;;5048910;28;20040;-76
2023/10/14 11:55:58;;;;;;;16.38;10.15;;;22.30;99.90;;;;;;5044628;28;20044;-76
2023/10/14 11:58:27;;;;;;;12.98;9.48;;;22.10;99.90;;;;;;5043851;28;20040;-77
2023/10/14 12:00:53;;;;;;;19.23;11.10;;;21.90;99.90;;;;;;5044723;28;20047;-76
2023/10/14 12:03:19;;;;;;;16.13;10.45;;;21.70;99.90;;;;;;5045915;28;20466;-76
2023/10/14 12:05:45;;;;;;;17.77;10.13;;;21.60;99.90;;;;;;5045843;28;20115;-76
2023/10/14 12:08:11;;;;;;;20.83;10.60;;;21.60;99.90;;;;;;5052947;28;20032;-76
2023/10/14 12:10:36;;;;;;;17.75;9.18;;;21.50;99.90;;;;;;5045311;28;20525;-76
2023/10/14 12:13:03;;;;;;;24.63;10.45;;;21.40;99.90;;;;;;5043983;28;20631;-76
2023/10/14 12:15:35;;;;;;;17.30;9.43;;;21.50;99.90;;;;;;5044237;28;20044;-76
2023/10/14 12:18:01;;;;;;;18.40;9.15;;;21.50;99.90;;;;;;5051183;28;20097;-76
2023/10/14 12:20:29;;;;;;;18.75;10.30;;;21.70;99.90;;;;;;5051301;28;20035;-75
2023/10/14 12:22:55;;;;;;;17.00;10.18;;;21.70;99.90;;;;;;5053181;28;20154;-76
2023/10/14 12:25:21;;;;;;;19.67;9.57;;;21.80;99.80;;;;;;5045378;28;20091;-75
2023/10/14 12:27:48;;;;;;;15.60;8.90;;;21.80;99.90;;;;;;5047658;28;20064;-76
2023/10/14 12:33:19;;;;;;;14.68;9.82;;;21.80;99.90;;;;;;5053486;28;20127;-75
2023/10/14 12:35:51;;;;;;;20.40;10.38;;;21.80;99.90;;;;;;5047299;28;20375;-76
2023/10/14 12:38:20;;;;;;;14.60;8.60;;;21.90;99.90;;;;;;5052929;28;20043;-76
2023/10/14 12:40:48;;;;;;;18.42;10.05;;;21.90;99.90;;;;;;5044149;28;20036;-75
2023/10/14 12:43:15;;;;;;;16.35;8.68;;;22.00;99.90;;;;;;5043691;28;20495;-75
2023/10/14 12:45:42;;;;;;;14.82;8.68;;;22.10;99.90;;;;;;5046645;28;20040;-76
2023/10/14 12:48:10;;;;;;;15.60;9.73;;;22.10;99.90;;;;;;5045301;28;20049;-75
2023/10/14 12:50:46;;;;;;;13.55;8.45;;;21.90;99.90;;;;;;5043248;28;20037;-76
2023/10/14 12:53:12;;;;;;;15.10;9.38;;;21.90;99.90;;;;;;5043527;28;20456;-76
2023/10/14 12:55:44;;;;;;;13.68;9.00;;;21.90;99.90;;;;;;5049245;28;20029;-76
2023/10/14 12:58:12;;;;;;;14.57;8.82;;;21.90;99.90;;;;;;5041606;28;20021;-76
2023/10/14 13:00:39;;;;;;;12.38;8.70;;;21.90;99.90;;;;;;5043226;28;20032;-76
2023/10/14 13:03:09;;;;;;;19.60;9.10;;;21.90;99.90;;;;;;5041681;28;20658;-76
2023/10/14 13:05:35;;;;;;;12.95;8.27;;;22.10;99.90;;;;;;5046173;28;20820;-76
2023/10/14 13:08:02;;;;;;;15.30;8.75;;;22.20;99.90;;;;;;5040752;28;20055;-75
2023/10/14 13:10:28;;;;;;;13.38;8.27;;;22.10;99.90;;;;;;5043031;28;20039;-75
2023/10/14 13:12:58;;;;;;;15.07;9.02;;;22.10;99.90;;;;;;5051163;28;20032;-76